sensor_id;sensor_type;location;lat;lon;timestamp;pressure;altitude;pressure_sealevel;temperature;humidity
10060;BME280;5069;49.306;8.636;2023-02-18T00:00:41;101426.41;;;12.46;100.00
10060;BME280;5069;49.306;8.636;2023-02-18T00:03:43;101425.44;;;12.48;100.00
10060;BME280;5069;49.306;8.636;2023-02-18T00:06:44;101429.06;;;12.46;100.00
10060;BME280;5069;49.306;8.636;2023-02-18T00:09:46;101418.44;;;12.47;100.00
10060;BME280;5069;49.306;8.636;2023-02-18T00:12:47;101409.59;;;12.48;100.00
10060;BME280;5069;49.306;8.636;2023-02-18T00:15:49;101410.75;;;12.36;100.00
10060;BME280;5069;49.306;8.636;2023-02-18T00:18:57;101401.06;;;12.37;100.00
10060;BME280;5069;49.306;8.636;2023-02-18T00:21:58;101402.69;;;12.42;100.00
10060;BME280;5069;49.306;8.636;2023-02-18T00:25:00;101411.63;;;12.37;100.00
10060;BME280;5069;49.306;8.636;2023-02-18T00:28:01;101409.84;;;12.39;100.00
10060;BME280;5069;49.306;8.636;2023-02-18T00:31:11;101416.75;;;12.45;100.00
10060;BME280;5069;49.306;8.636;2023-02-18T00:34:13;101418.44;;;12.47;100.00
10060;BME280;5069;49.306;8.636;2023-02-18T00:37:14;101418.66;;;12.38;100.00
10060;BME280;5069;49.306;8.636;2023-02-18T00:40:15;101411.44;;;12.46;100.00
10060;BME280;5069;49.306;8.636;2023-02-18T00:43:17;101406.13;;;12.46;100.00
10060;BME280;5069;49.306;8.636;2023-02-18T00:46:20;101396.44;;;12.47;100.00
10060;BME280;5069;49.306;8.636;2023-02-18T00:49:21;101386.72;;;12.47;100.00
10060;BME280;5069;49.306;8.636;2023-02-18T00:52:23;101393.03;;;12.41;100.00
10060;BME280;5069;49.306;8.636;2023-02-18T00:55:24;101393.88;;;12.42;100.00
10060;BME280;5069;49.306;8.636;2023-02-18T00:58:25;101408.84;;;12.43;100.00
10060;BME280;5069;49.306;8.636;2023-02-18T01:01:27;101404.44;;;12.42;100.00
10060;BME280;5069;49.306;8.636;2023-02-18T01:04:28;101404.38;;;12.45;100.00
10060;BME280;5069;49.306;8.636;2023-02-18T01:07:30;101410.53;;;12.47;100.00
10060;BME280;5069;49.306;8.636;2023-02-18T01:10:33;101405.28;;;12.44;100.00
10060;BME280;5069;49.306;8.636;2023-02-18T01:13:39;101410.69;;;12.39;100.00
10060;BME280;5069;49.306;8.636;2023-02-18T01:16:41;101392.16;;;12.41;100.00
10060;BME280;5069;49.306;8.636;2023-02-18T01:19:42;101394.84;;;12.39;100.00
10060;BME280;5069;49.306;8.636;2023-02-18T01:22:44;101388.69;;;12.39;100.00
10060;BME280;5069;49.306;8.636;2023-02-18T01:25:45;101392.34;;;12.33;100.00
10060;BME280;5069;49.306;8.636;2023-02-18T01:28:47;101396.59;;;12.40;100.00
10060;BME280;5069;49.306;8.636;2023-02-18T01:31:49;101393.97;;;12.39;100.00
10060;BME280;5069;49.306;8.636;2023-02-18T01:34:51;101395.88;;;12.32;100.00
10060;BME280;5069;49.306;8.636;2023-02-18T01:37:53;101398.50;;;12.34;100.00
10060;BME280;5069;49.306;8.636;2023-02-18T01:40:54;101399.31;;;12.36;100.00
10060;BME280;5069;49.306;8.636;2023-02-18T01:44:16;101392.22;;;12.38;100.00
10060;BME280;5069;49.306;8.636;2023-02-18T01:47:19;101389.56;;;12.38;100.00
10060;BME280;5069;49.306;8.636;2023-02-18T01:50:21;101377.81;;;12.50;100.00
10060;BME280;5069;49.306;8.636;2023-02-18T01:53:27;101386.00;;;12.40;100.00
10060;BME280;5069;49.306;8.636;2023-02-18T01:56:39;101383.50;;;12.34;100.00
10060;BME280;5069;49.306;8.636;2023-02-18T01:59:52;101385.19;;;12.37;100.00
10060;BME280;5069;49.306;8.636;2023-02-18T02:02:54;101371.00;;;12.41;100.00
10060;BME280;5069;49.306;8.636;2023-02-18T02:05:56;101373.66;;;12.41;100.00
10060;BME280;5069;49.306;8.636;2023-02-18T02:08:59;101375.22;;;12.48;100.00
10060;BME280;5069;49.306;8.636;2023-02-18T02:18:41;101364.75;;;12.43;100.00
10060;BME280;5069;49.306;8.636;2023-02-18T02:26:22;101357.72;;;12.42;100.00
10060;BME280;5069;49.306;8.636;2023-02-18T02:32:42;101362.38;;;12.33;100.00
10060;BME280;5069;49.306;8.636;2023-02-18T02:46:34;101337.84;;;12.28;100.00
10060;BME280;5069;49.306;8.636;2023-02-18T02:49:45;101334.44;;;12.23;100.00
10060;BME280;5069;49.306;8.636;2023-02-18T02:52:51;101336.03;;;12.30;100.00
10060;BME280;5069;49.306;8.636;2023-02-18T02:55:55;101322.88;;;12.27;100.00
10060;BME280;5069;49.306;8.636;2023-02-18T02:59:01;101327.28;;;12.28;100.00
10060;BME280;5069;49.306;8.636;2023-02-18T03:09:09;101321.81;;;12.34;100.00
10060;BME280;5069;49.306;8.636;2023-02-18T03:12:20;101332.47;;;12.31;100.00
10060;BME280;5069;49.306;8.636;2023-02-18T03:15:29;101333.50;;;12.25;100.00
10060;BME280;5069;49.306;8.636;2023-02-18T03:18:47;101321.34;;;12.18;100.00
10060;BME280;5069;49.306;8.636;2023-02-18T03:21:57;101325.03;;;12.13;100.00
10060;BME280;5069;49.306;8.636;2023-02-18T03:25:02;101327.66;;;12.13;100.00
10060;BME280;5069;49.306;8.636;2023-02-18T03:28:07;101316.13;;;12.15;100.00
10060;BME280;5069;49.306;8.636;2023-02-18T03:31:13;101325.78;;;12.18;100.00
10060;BME280;5069;49.306;8.636;2023-02-18T03:34:24;101320.50;;;12.18;100.00
10060;BME280;5069;49.306;8.636;2023-02-18T03:37:26;101305.59;;;12.14;100.00
10060;BME280;5069;49.306;8.636;2023-02-18T03:40:29;101313.47;;;12.17;100.00
10060;BME280;5069;49.306;8.636;2023-02-18T03:43:34;101308.88;;;12.23;100.00
10060;BME280;5069;49.306;8.636;2023-02-18T03:46:38;101311.66;;;12.19;100.00
10060;BME280;5069;49.306;8.636;2023-02-18T03:49:40;101302.78;;;12.20;100.00
10060;BME280;5069;49.306;8.636;2023-02-18T03:52:41;101307.13;;;12.24;100.00
10060;BME280;5069;49.306;8.636;2023-02-18T03:55:43;101311.69;;;12.17;100.00
10060;BME280;5069;49.306;8.636;2023-02-18T03:58:44;101311.72;;;12.16;100.00
10060;BME280;5069;49.306;8.636;2023-02-18T04:01:46;101318.66;;;12.20;100.00
10060;BME280;5069;49.306;8.636;2023-02-18T04:04:47;101316.09;;;12.17;100.00
10060;BME280;5069;49.306;8.636;2023-02-18T04:07:48;101312.66;;;12.13;100.00
10060;BME280;5069;49.306;8.636;2023-02-18T04:10:50;101315.19;;;12.18;100.00
10060;BME280;5069;49.306;8.636;2023-02-18T04:13:51;101310.13;;;12.09;100.00
10060;BME280;5069;49.306;8.636;2023-02-18T04:16:53;101317.75;;;12.21;100.00
10060;BME280;5069;49.306;8.636;2023-02-18T04:19:54;101309.06;;;12.16;100.00
10060;BME280;5069;49.306;8.636;2023-02-18T04:22:56;101321.44;;;12.14;100.00
10060;BME280;5069;49.306;8.636;2023-02-18T04:25:57;101324.97;;;12.14;100.00
10060;BME280;5069;49.306;8.636;2023-02-18T04:28:59;101325.84;;;12.15;100.00
10060;BME280;5069;49.306;8.636;2023-02-18T04:32:00;101332.84;;;12.17;100.00
10060;BME280;5069;49.306;8.636;2023-02-18T04:35:02;101325.94;;;12.12;100.00
10060;BME280;5069;49.306;8.636;2023-02-18T04:38:04;101316.31;;;12.08;100.00
10060;BME280;5069;49.306;8.636;2023-02-18T04:41:05;101316.31;;;12.08;100.00
10060;BME280;5069;49.306;8.636;2023-02-18T04:44:07;101326.06;;;12.06;100.00
10060;BME280;5069;49.306;8.636;2023-02-18T04:47:08;101319.13;;;12.02;100.00
10060;BME280;5069;49.306;8.636;2023-02-18T04:50:10;101312.13;;;12.00;100.00
10060;BME280;5069;49.306;8.636;2023-02-18T04:53:11;101310.38;;;11.99;100.00
10060;BME280;5069;49.306;8.636;2023-02-18T04:56:12;101317.56;;;11.94;100.00
10060;BME280;5069;49.306;8.636;2023-02-18T04:59:14;101319.06;;;12.05;100.00
10060;BME280;5069;49.306;8.636;2023-02-18T05:02:15;101308.56;;;12.02;100.00
10060;BME280;5069;49.306;8.636;2023-02-18T05:05:17;101319.28;;;11.95;100.00
10060;BME280;5069;49.306;8.636;2023-02-18T05:08:18;101322.09;;;11.88;100.00
10060;BME280;5069;49.306;8.636;2023-02-18T05:11:20;101314.34;;;11.80;100.00
10060;BME280;5069;49.306;8.636;2023-02-18T05:14:21;101302.88;;;11.83;100.00
10060;BME280;5069;49.306;8.636;2023-02-18T05:17:23;101302.03;;;11.79;100.00
10060;BME280;5069;49.306;8.636;2023-02-18T05:20:24;101296.94;;;11.72;100.00
10060;BME280;5069;49.306;8.636;2023-02-18T05:23:26;101302.16;;;11.75;100.00
10060;BME280;5069;49.306;8.636;2023-02-18T05:26:27;101298.66;;;11.74;100.00
10060;BME280;5069;49.306;8.636;2023-02-18T05:29:29;101289.88;;;11.72;100.00
10060;BME280;5069;49.306;8.636;2023-02-18T05:32:30;101296.97;;;11.70;100.00
10060;BME280;5069;49.306;8.636;2023-02-18T05:35:31;101295.06;;;11.78;100.00
10060;BME280;5069;49.306;8.636;2023-02-18T05:38:33;101294.22;;;11.76;100.00
10060;BME280;5069;49.306;8.636;2023-02-18T05:41:34;101291.66;;;11.72;100.00
10060;BME280;5069;49.306;8.636;2023-02-18T05:44:36;101296.09;;;11.70;100.00
10060;BME280;5069;49.306;8.636;2023-02-18T05:47:37;101289.94;;;11.69;100.00
10060;BME280;5069;49.306;8.636;2023-02-18T05:50:39;101293.56;;;11.65;100.00
10060;BME280;5069;49.306;8.636;2023-02-18T05:53:40;101296.06;;;11.71;100.00
10060;BME280;5069;49.306;8.636;2023-02-18T05:56:42;101296.84;;;11.76;100.00
10060;BME280;5069;49.306;8.636;2023-02-18T05:59:43;101287.19;;;11.75;100.00
10060;BME280;5069;49.306;8.636;2023-02-18T06:02:45;101298.72;;;11.71;100.00
10060;BME280;5069;49.306;8.636;2023-02-18T06:05:50;101286.41;;;11.70;100.00
10060;BME280;5069;49.306;8.636;2023-02-18T06:08:51;101289.16;;;11.66;100.00
10060;BME280;5069;49.306;8.636;2023-02-18T06:11:53;101288.25;;;11.67;100.00
10060;BME280;5069;49.306;8.636;2023-02-18T06:14:54;101292.56;;;11.69;100.00
10060;BME280;5069;49.306;8.636;2023-02-18T06:17:56;101298.75;;;11.68;100.00
10060;BME280;5069;49.306;8.636;2023-02-18T06:20:57;101285.66;;;11.65;100.00
10060;BME280;5069;49.306;8.636;2023-02-18T06:23:58;101286.63;;;11.61;100.00
10060;BME280;5069;49.306;8.636;2023-02-18T06:27:00;101285.63;;;11.67;100.00
10060;BME280;5069;49.306;8.636;2023-02-18T06:30:02;101274.19;;;11.66;100.00
10060;BME280;5069;49.306;8.636;2023-02-18T06:33:04;101284.00;;;11.59;100.00
10060;BME280;5069;49.306;8.636;2023-02-18T06:36:07;101283.22;;;11.56;100.00
10060;BME280;5069;49.306;8.636;2023-02-18T06:39:10;101273.63;;;11.52;100.00
10060;BME280;5069;49.306;8.636;2023-02-18T06:42:11;101263.06;;;11.52;100.00
10060;BME280;5069;49.306;8.636;2023-02-18T06:45:12;101271.75;;;11.57;100.00
10060;BME280;5069;49.306;8.636;2023-02-18T06:48:14;101268.16;;;11.61;100.00
10060;BME280;5069;49.306;8.636;2023-02-18T06:51:17;101261.78;;;11.68;100.00
10060;BME280;5069;49.306;8.636;2023-02-18T06:54:19;101265.94;;;11.80;100.00
10060;BME280;5069;49.306;8.636;2023-02-18T06:57:21;101258.97;;;11.77;100.00
10060;BME280;5069;49.306;8.636;2023-02-18T07:00:22;101255.44;;;11.78;100.00
10060;BME280;5069;49.306;8.636;2023-02-18T07:03:23;101250.84;;;11.85;100.00
10060;BME280;5069;49.306;8.636;2023-02-18T07:06:25;101247.22;;;11.89;100.00
10060;BME280;5069;49.306;8.636;2023-02-18T07:09:26;101250.75;;;11.89;100.00
10060;BME280;5069;49.306;8.636;2023-02-18T07:12:28;101246.94;;;11.99;100.00
10060;BME280;5069;49.306;8.636;2023-02-18T07:15:29;101245.75;;;12.11;100.00
10060;BME280;5069;49.306;8.636;2023-02-18T07:18:31;101241.38;;;12.10;100.00
10060;BME280;5069;49.306;8.636;2023-02-18T07:21:33;101244.91;;;12.11;100.00
10060;BME280;5069;49.306;8.636;2023-02-18T07:24:34;101251.97;;;12.09;100.00
10060;BME280;5069;49.306;8.636;2023-02-18T07:27:36;101246.63;;;12.12;100.00
10060;BME280;5069;49.306;8.636;2023-02-18T07:30:37;101236.94;;;12.12;100.00
10060;BME280;5069;49.306;8.636;2023-02-18T07:33:39;101242.06;;;12.18;100.00
10060;BME280;5069;49.306;8.636;2023-02-18T07:36:40;101236.59;;;12.24;100.00
10060;BME280;5069;49.306;8.636;2023-02-18T07:39:43;101239.19;;;12.26;100.00
10060;BME280;5069;49.306;8.636;2023-02-18T07:42:44;101237.28;;;12.31;100.00
10060;BME280;5069;49.306;8.636;2023-02-18T07:45:46;101228.44;;;12.32;100.00
10060;BME280;5069;49.306;8.636;2023-02-18T07:48:48;101217.81;;;12.35;100.00
10060;BME280;5069;49.306;8.636;2023-02-18T07:51:49;101219.34;;;12.42;100.00
10060;BME280;5069;49.306;8.636;2023-02-18T07:54:51;101206.69;;;12.53;100.00
10060;BME280;5069;49.306;8.636;2023-02-18T07:57:52;101211.00;;;12.57;100.00
10060;BME280;5069;49.306;8.636;2023-02-18T08:01:07;101210.19;;;12.54;100.00
10060;BME280;5069;49.306;8.636;2023-02-18T08:04:09;101211.81;;;12.59;100.00
10060;BME280;5069;49.306;8.636;2023-02-18T08:07:12;101212.47;;;12.67;100.00
10060;BME280;5069;49.306;8.636;2023-02-18T08:10:14;101212.09;;;12.79;100.00
10060;BME280;5069;49.306;8.636;2023-02-18T08:13:16;101218.31;;;12.78;100.00
10060;BME280;5069;49.306;8.636;2023-02-18T08:16:19;101209.44;;;12.79;100.00
10060;BME280;5069;49.306;8.636;2023-02-18T08:19:21;101227.69;;;12.89;100.00
10060;BME280;5069;49.306;8.636;2023-02-18T08:22:22;101214.38;;;12.92;100.00
10060;BME280;5069;49.306;8.636;2023-02-18T08:25:24;101219.53;;;12.96;100.00
10060;BME280;5069;49.306;8.636;2023-02-18T08:28:30;101207.16;;;12.97;100.00
10060;BME280;5069;49.306;8.636;2023-02-18T08:31:31;101217.84;;;12.94;100.00
10060;BME280;5069;49.306;8.636;2023-02-18T08:34:33;101218.78;;;12.93;100.00
10060;BME280;5069;49.306;8.636;2023-02-18T08:37:34;101214.38;;;12.92;100.00
10060;BME280;5069;49.306;8.636;2023-02-18T08:41:02;101211.47;;;12.99;100.00
10060;BME280;5069;49.306;8.636;2023-02-18T08:44:03;101217.78;;;12.95;100.00
10060;BME280;5069;49.306;8.636;2023-02-18T08:47:05;101207.84;;;13.03;100.00
10060;BME280;5069;49.306;8.636;2023-02-18T08:50:27;101210.53;;;13.02;100.00
10060;BME280;5069;49.306;8.636;2023-02-18T08:53:28;101212.16;;;13.06;100.00
10060;BME280;5069;49.306;8.636;2023-02-18T08:56:30;101193.50;;;13.10;100.00
10060;BME280;5069;49.306;8.636;2023-02-18T08:59:32;101201.34;;;13.15;100.00
10060;BME280;5069;49.306;8.636;2023-02-18T09:02:34;101188.44;;;13.32;100.00
10060;BME280;5069;49.306;8.636;2023-02-18T09:05:38;101187.47;;;13.35;100.00
10060;BME280;5069;49.306;8.636;2023-02-18T09:08:39;101182.72;;;13.44;99.77
10060;BME280;5069;49.306;8.636;2023-02-18T09:11:46;101185.94;;;13.54;98.04
10060;BME280;5069;49.306;8.636;2023-02-18T09:14:49;101175.00;;;13.64;97.29
10060;BME280;5069;49.306;8.636;2023-02-18T09:17:50;101180.59;;;13.55;97.82
10060;BME280;5069;49.306;8.636;2023-02-18T09:20:55;101187.13;;;13.72;96.96
10060;BME280;5069;49.306;8.636;2023-02-18T09:23:57;101181.13;;;13.67;96.79
10060;BME280;5069;49.306;8.636;2023-02-18T09:26:59;101188.75;;;13.76;95.29
10060;BME280;5069;49.306;8.636;2023-02-18T09:30:00;101182.63;;;13.74;95.01
10060;BME280;5069;49.306;8.636;2023-02-18T09:33:02;101183.19;;;13.83;94.24
10060;BME280;5069;49.306;8.636;2023-02-18T09:36:04;101194.78;;;13.79;95.46
10060;BME280;5069;49.306;8.636;2023-02-18T09:39:05;101196.78;;;13.73;95.94
10060;BME280;5069;49.306;8.636;2023-02-18T09:42:12;101186.91;;;13.78;95.70
10060;BME280;5069;49.306;8.636;2023-02-18T09:45:15;101200.38;;;13.72;96.98
10060;BME280;5069;49.306;8.636;2023-02-18T09:48:17;101195.16;;;13.69;97.38
10060;BME280;5069;49.306;8.636;2023-02-18T09:51:19;101195.13;;;13.70;97.24
10060;BME280;5069;49.306;8.636;2023-02-18T09:54:20;101202.31;;;13.67;97.82
10060;BME280;5069;49.306;8.636;2023-02-18T09:57:32;101195.19;;;13.67;97.84
10060;BME280;5069;49.306;8.636;2023-02-18T10:00:38;101196.72;;;13.74;97.02
10060;BME280;5069;49.306;8.636;2023-02-18T10:03:41;101197.59;;;13.75;96.94
10060;BME280;5069;49.306;8.636;2023-02-18T10:06:45;101199.22;;;13.79;95.97
10060;BME280;5069;49.306;8.636;2023-02-18T10:09:49;101202.16;;;13.96;93.45
10060;BME280;5069;49.306;8.636;2023-02-18T10:12:52;101188.88;;;13.97;92.34
10060;BME280;5069;49.306;8.636;2023-02-18T10:15:55;101200.00;;;14.07;89.51
10060;BME280;5069;49.306;8.636;2023-02-18T10:19:00;101191.03;;;14.11;85.76
10060;BME280;5069;49.306;8.636;2023-02-18T10:22:06;101201.44;;;14.17;84.53
10060;BME280;5069;49.306;8.636;2023-02-18T10:25:16;101193.53;;;14.16;85.19
10060;BME280;5069;49.306;8.636;2023-02-18T10:28:21;101184.91;;;14.09;84.70
10060;BME280;5069;49.306;8.636;2023-02-18T10:31:33;101188.38;;;14.11;83.91
10060;BME280;5069;49.306;8.636;2023-02-18T10:34:44;101187.13;;;14.21;81.66
10060;BME280;5069;49.306;8.636;2023-02-18T10:50:52;101199.41;;;14.48;74.22
10060;BME280;5069;49.306;8.636;2023-02-18T10:53:54;101188.97;;;14.44;74.95
10060;BME280;5069;49.306;8.636;2023-02-18T10:56:59;101190.81;;;14.42;75.45
10060;BME280;5069;49.306;8.636;2023-02-18T11:04:06;101197.53;;;14.27;82.24
10060;BME280;5069;49.306;8.636;2023-02-18T11:06:44;101214.00;;;14.12;84.92
10060;BME280;5069;49.306;8.636;2023-02-18T11:09:49;101205.38;;;14.05;83.90
10060;BME280;5069;49.306;8.636;2023-02-18T11:12:59;101200.78;;;14.11;84.00
10060;BME280;5069;49.306;8.636;2023-02-18T11:16:04;101206.13;;;14.09;83.58
10060;BME280;5069;49.306;8.636;2023-02-18T11:19:41;101192.78;;;14.12;81.37
10060;BME280;5069;49.306;8.636;2023-02-18T11:22:43;101190.22;;;14.09;81.09
10060;BME280;5069;49.306;8.636;2023-02-18T11:29:06;101197.75;;;14.21;77.60
10060;BME280;5069;49.306;8.636;2023-02-18T11:32:10;101184.97;;;14.32;75.90
10060;BME280;5069;49.306;8.636;2023-02-18T11:35:23;101195.69;;;14.29;75.77
10060;BME280;5069;49.306;8.636;2023-02-18T11:38:37;101180.00;;;14.23;75.09
10060;BME280;5069;49.306;8.636;2023-02-18T11:41:46;101188.66;;;14.28;74.12
10060;BME280;5069;49.306;8.636;2023-02-18T11:44:56;101176.94;;;14.34;73.45
10060;BME280;5069;49.306;8.636;2023-02-18T11:48:00;101166.38;;;14.32;73.81
10060;BME280;5069;49.306;8.636;2023-02-18T11:51:02;101176.81;;;14.38;73.44
10060;BME280;5069;49.306;8.636;2023-02-18T11:54:28;101181.19;;;14.39;73.35
10060;BME280;5069;49.306;8.636;2023-02-18T11:57:35;101169.78;;;14.37;73.43
10060;BME280;5069;49.306;8.636;2023-02-18T12:03:47;101158.97;;;14.42;71.45
10060;BME280;5069;49.306;8.636;2023-02-18T12:07:02;101154.88;;;14.33;72.57
10060;BME280;5069;49.306;8.636;2023-02-18T12:13:26;101153.13;;;14.32;71.41
10060;BME280;5069;49.306;8.636;2023-02-18T12:16:44;101141.94;;;14.24;71.39
10060;BME280;5069;49.306;8.636;2023-02-18T12:20:23;101140.69;;;14.34;71.13
10060;BME280;5069;49.306;8.636;2023-02-18T12:23:34;101140.84;;;14.30;71.95
10060;BME280;5069;49.306;8.636;2023-02-18T12:26:51;101120.97;;;14.41;72.35
10060;BME280;5069;49.306;8.636;2023-02-18T12:30:12;101140.50;;;14.40;72.51
10060;BME280;5069;49.306;8.636;2023-02-18T12:42:59;101122.22;;;14.31;72.21
10060;BME280;5069;49.306;8.636;2023-02-18T12:49:42;101125.78;;;14.30;73.16
10060;BME280;5069;49.306;8.636;2023-02-18T12:56:02;101101.03;;;14.55;72.48
10060;BME280;5069;49.306;8.636;2023-02-18T13:08:54;101107.47;;;14.71;71.42
10060;BME280;5069;49.306;8.636;2023-02-18T13:18:37;101080.78;;;15.17;67.66
10060;BME280;5069;49.306;8.636;2023-02-18T13:21:40;101078.28;;;15.35;65.63
10060;BME280;5069;49.306;8.636;2023-02-18T13:24:46;101068.56;;;15.55;64.52
10060;BME280;5069;49.306;8.636;2023-02-18T13:28:17;101063.56;;;15.48;63.63
10060;BME280;5069;49.306;8.636;2023-02-18T13:31:57;101057.91;;;15.15;65.29
10060;BME280;5069;49.306;8.636;2023-02-18T13:41:41;101052.22;;;15.02;67.13
10060;BME280;5069;49.306;8.636;2023-02-18T13:45:22;101044.75;;;14.90;67.82
10060;BME280;5069;49.306;8.636;2023-02-18T13:48:26;101039.81;;;14.81;67.58
10060;BME280;5069;49.306;8.636;2023-02-18T13:51:38;101036.31;;;14.80;67.28
10060;BME280;5069;49.306;8.636;2023-02-18T13:54:43;101044.13;;;14.83;67.03
10060;BME280;5069;49.306;8.636;2023-02-18T13:57:47;101014.53;;;14.72;66.82
10060;BME280;5069;49.306;8.636;2023-02-18T14:00:58;101031.94;;;14.58;67.60
10060;BME280;5069;49.306;8.636;2023-02-18T14:04:01;101035.38;;;14.60;67.86
10060;BME280;5069;49.306;8.636;2023-02-18T14:10:32;101026.06;;;14.50;69.14
10060;BME280;5069;49.306;8.636;2023-02-18T14:26:29;101043.94;;;14.21;69.42
10060;BME280;5069;49.306;8.636;2023-02-18T14:29:31;101025.03;;;14.07;70.08
10060;BME280;5069;49.306;8.636;2023-02-18T14:32:32;101029.31;;;14.11;69.97
10060;BME280;5069;49.306;8.636;2023-02-18T14:35:45;101030.59;;;14.01;69.93
10060;BME280;5069;49.306;8.636;2023-02-18T14:38:56;101039.28;;;14.04;68.93
10060;BME280;5069;49.306;8.636;2023-02-18T14:42:33;101028.63;;;14.06;68.61
10060;BME280;5069;49.306;8.636;2023-02-18T14:52:33;101030.03;;;13.91;68.96
10060;BME280;5069;49.306;8.636;2023-02-18T14:55:43;101021.31;;;13.89;70.08
10060;BME280;5069;49.306;8.636;2023-02-18T14:58:51;101029.31;;;13.88;70.16
10060;BME280;5069;49.306;8.636;2023-02-18T15:01:55;101035.66;;;13.84;70.16
10060;BME280;5069;49.306;8.636;2023-02-18T15:05:25;101041.56;;;13.90;70.31
10060;BME280;5069;49.306;8.636;2023-02-18T15:08:36;101031.72;;;13.94;70.34
10060;BME280;5069;49.306;8.636;2023-02-18T15:11:43;101045.19;;;13.88;70.27
10060;BME280;5069;49.306;8.636;2023-02-18T15:14:49;101047.38;;;13.77;70.90
10060;BME280;5069;49.306;8.636;2023-02-18T15:17:51;101035.41;;;13.67;71.86
10060;BME280;5069;49.306;8.636;2023-02-18T15:20:54;101016.59;;;13.73;70.70
10060;BME280;5069;49.306;8.636;2023-02-18T15:24:05;101043.25;;;13.68;71.47
10060;BME280;5069;49.306;8.636;2023-02-18T15:27:15;101048.78;;;13.62;71.43
10060;BME280;5069;49.306;8.636;2023-02-18T15:33:20;101065.97;;;13.50;71.45
10060;BME280;5069;49.306;8.636;2023-02-18T15:36:24;101060.88;;;13.44;71.75
10060;BME280;5069;49.306;8.636;2023-02-18T15:39:26;101049.47;;;13.44;72.57
10060;BME280;5069;49.306;8.636;2023-02-18T15:42:32;101062.78;;;13.41;72.67
10060;BME280;5069;49.306;8.636;2023-02-18T15:45:38;101059.56;;;13.33;72.88
10060;BME280;5069;49.306;8.636;2023-02-18T15:48:45;101052.41;;;13.35;72.87
10060;BME280;5069;49.306;8.636;2023-02-18T15:51:48;101057.66;;;13.36;72.83
10060;BME280;5069;49.306;8.636;2023-02-18T15:54:51;101071.94;;;13.32;72.66
10060;BME280;5069;49.306;8.636;2023-02-18T15:57:53;101073.84;;;13.27;73.09
10060;BME280;5069;49.306;8.636;2023-02-18T16:00:55;101079.22;;;13.26;73.15
10060;BME280;5069;49.306;8.636;2023-02-18T16:03:57;101073.22;;;13.20;73.72
10060;BME280;5069;49.306;8.636;2023-02-18T16:10:24;101086.47;;;13.19;73.97
10060;BME280;5069;49.306;8.636;2023-02-18T16:13:26;101086.28;;;13.25;74.04
10060;BME280;5069;49.306;8.636;2023-02-18T16:16:31;101091.66;;;13.22;73.87
10060;BME280;5069;49.306;8.636;2023-02-18T16:19:42;101094.44;;;13.19;74.47
10060;BME280;5069;49.306;8.636;2023-02-18T16:23:11;101092.66;;;13.19;74.59
10060;BME280;5069;49.306;8.636;2023-02-18T16:26:21;101092.81;;;13.15;75.01
10060;BME280;5069;49.306;8.636;2023-02-18T16:29:25;101100.00;;;13.10;74.95
10060;BME280;5069;49.306;8.636;2023-02-18T16:32:27;101104.75;;;12.99;75.76
10060;BME280;5069;49.306;8.636;2023-02-18T16:35:29;101119.00;;;12.95;76.62
10060;BME280;5069;49.306;8.636;2023-02-18T16:38:48;101106.03;;;12.87;76.57
10060;BME280;5069;49.306;8.636;2023-02-18T16:41:50;101109.66;;;12.83;77.45
10060;BME280;5069;49.306;8.636;2023-02-18T16:44:51;101107.22;;;12.77;78.39
10060;BME280;5069;49.306;8.636;2023-02-18T16:47:53;101118.53;;;12.82;78.10
10060;BME280;5069;49.306;8.636;2023-02-18T16:50:54;101113.16;;;12.85;77.79
10060;BME280;5069;49.306;8.636;2023-02-18T16:53:56;101126.59;;;12.77;78.35
10060;BME280;5069;49.306;8.636;2023-02-18T16:56:57;101139.97;;;12.73;79.05
10060;BME280;5069;49.306;8.636;2023-02-18T16:59:59;101128.72;;;12.66;78.89
10060;BME280;5069;49.306;8.636;2023-02-18T17:03:00;101130.56;;;12.64;78.88
10060;BME280;5069;49.306;8.636;2023-02-18T17:06:02;101121.69;;;12.65;79.01
10060;BME280;5069;49.306;8.636;2023-02-18T17:09:18;101123.59;;;12.60;79.58
10060;BME280;5069;49.306;8.636;2023-02-18T17:12:20;101114.94;;;12.55;79.68
10060;BME280;5069;49.306;8.636;2023-02-18T17:18:24;101120.41;;;12.49;80.30
10060;BME280;5069;49.306;8.636;2023-02-18T17:21:26;101144.75;;;12.60;79.86
10060;BME280;5069;49.306;8.636;2023-02-18T17:24:27;101141.16;;;12.64;79.24
10060;BME280;5069;49.306;8.636;2023-02-18T17:27:29;101147.88;;;12.45;80.72
10060;BME280;5069;49.306;8.636;2023-02-18T17:30:34;101154.72;;;12.52;80.24
10060;BME280;5069;49.306;8.636;2023-02-18T17:33:37;101158.28;;;12.51;80.47
10060;BME280;5069;49.306;8.636;2023-02-18T17:36:38;101166.22;;;12.51;80.45
10060;BME280;5069;49.306;8.636;2023-02-18T17:39:45;101173.25;;;12.52;80.67
10060;BME280;5069;49.306;8.636;2023-02-18T17:42:48;101173.28;;;12.51;80.98
10060;BME280;5069;49.306;8.636;2023-02-18T17:45:55;101173.44;;;12.45;81.49
10060;BME280;5069;49.306;8.636;2023-02-18T17:48:57;101181.09;;;12.54;81.12
10060;BME280;5069;49.306;8.636;2023-02-18T17:52:00;101186.66;;;12.45;81.37
10060;BME280;5069;49.306;8.636;2023-02-18T17:58:20;101186.66;;;12.45;81.35
10060;BME280;5069;49.306;8.636;2023-02-18T18:01:22;101188.31;;;12.49;81.06
10060;BME280;5069;49.306;8.636;2023-02-18T18:04:23;101201.94;;;12.35;82.28
10060;BME280;5069;49.306;8.636;2023-02-18T18:07:25;101185.03;;;12.40;81.88
10060;BME280;5069;49.306;8.636;2023-02-18T18:10:29;101180.84;;;12.32;82.31
10060;BME280;5069;49.306;8.636;2023-02-18T18:13:32;101182.69;;;12.30;82.69
10060;BME280;5069;49.306;8.636;2023-02-18T18:16:33;101176.47;;;12.31;82.90
10060;BME280;5069;49.306;8.636;2023-02-18T18:19:35;101176.72;;;12.23;83.16
10060;BME280;5069;49.306;8.636;2023-02-18T18:22:38;101176.66;;;12.25;83.15
10060;BME280;5069;49.306;8.636;2023-02-18T18:25:42;101159.81;;;12.29;83.20